createdAt,value
2022-10-12T00:03:07.948Z,101536.63
2022-10-12T00:07:09.498Z,101530.56
2022-10-12T00:11:14.697Z,101537.59
2022-10-12T00:15:16.594Z,101540.19
2022-10-12T00:19:18.433Z,101544.50
2022-10-12T00:23:20.032Z,101535.81
2022-10-12T00:27:22.064Z,101531.63
2022-10-12T00:31:24.605Z,101541.97
2022-10-12T00:35:29.625Z,101541.97
2022-10-12T00:39:31.279Z,101549.75
2022-10-12T00:43:39.256Z,101546.31
2022-10-12T00:47:51.601Z,101547.28
2022-10-12T00:51:58.702Z,101555.94
2022-10-12T00:56:04.749Z,101558.50
2022-10-12T01:00:09.777Z,101564.56
2022-10-12T01:04:11.618Z,101562.03
2022-10-12T01:08:13.508Z,101562.06
2022-10-12T01:12:16.181Z,101565.53
2022-10-12T01:17:01.626Z,101568.09
2022-10-12T01:21:20.949Z,101566.41
2022-10-12T01:25:53.666Z,101569.88
2022-10-12T01:30:07.260Z,101571.59
2022-10-12T01:34:18.016Z,101574.19
2022-10-12T01:38:44.675Z,101582.88
2022-10-12T01:42:47.424Z,101586.31
2022-10-12T01:46:49.795Z,101587.16
2022-10-12T01:50:56.293Z,101582.03
2022-10-12T01:55:19.619Z,101582.00
2022-10-12T01:59:59.424Z,101588.06
2022-10-12T02:04:10.185Z,101585.50
2022-10-12T02:08:31.192Z,101577.78
2022-10-12T02:12:34.562Z,101583.84
2022-10-12T02:16:42.322Z,101585.59
2022-10-12T02:20:48.824Z,101587.28
2022-10-12T02:24:53.152Z,101586.47
2022-10-12T02:28:55.269Z,101589.91
2022-10-12T02:33:05.808Z,101595.09
2022-10-12T02:37:12.288Z,101596.84
2022-10-12T02:41:23.368Z,101594.25
2022-10-12T02:45:25.819Z,101596.84
2022-10-12T02:49:29.620Z,101600.28
2022-10-12T02:53:31.360Z,101602.88
2022-10-12T02:57:33.265Z,101596.84
2022-10-12T03:01:34.925Z,101602.03
2022-10-12T03:05:37.165Z,101600.31
2022-10-12T03:09:38.838Z,101598.59
2022-10-12T03:13:40.798Z,101599.47
2022-10-12T03:17:42.735Z,101590.88
2022-10-12T03:21:44.765Z,101592.59
2022-10-12T03:25:46.415Z,101597.78
2022-10-12T03:29:48.246Z,101598.66
2022-10-12T03:33:49.867Z,101598.66
2022-10-12T03:37:51.763Z,101596.91
2022-10-12T03:41:53.532Z,101599.50
2022-10-12T03:45:55.345Z,101604.69
2022-10-12T03:49:57.004Z,101597.78
2022-10-12T03:53:58.920Z,101599.53
2022-10-12T03:58:00.704Z,101595.19
2022-10-12T04:02:02.523Z,101595.19
2022-10-12T04:06:04.755Z,101598.66
2022-10-12T04:10:07.219Z,101602.09
2022-10-12T04:14:08.897Z,101600.41
2022-10-12T04:18:11.019Z,101602.13
2022-10-12T04:22:12.736Z,101602.13
2022-10-12T04:26:14.599Z,101607.28
2022-10-12T04:30:16.367Z,101612.47
2022-10-12T04:34:19.531Z,101616.78
2022-10-12T04:38:21.165Z,101601.25
2022-10-12T04:42:23.215Z,101615.88
2022-10-12T04:46:24.913Z,101609.00
2022-10-12T04:50:30.053Z,101607.28
2022-10-12T04:54:32.874Z,101616.78
2022-10-12T04:58:35.568Z,101621.97
2022-10-12T05:02:37.264Z,101620.22
2022-10-12T05:06:39.282Z,101627.13
2022-10-12T05:10:40.922Z,101627.09
2022-10-12T05:14:44.304Z,101640.03
2022-10-12T05:18:46.205Z,101640.03
2022-10-12T05:22:47.978Z,101644.31
2022-10-12T05:26:49.842Z,101653.81
2022-10-12T05:30:52.979Z,101657.25
2022-10-12T05:34:55.249Z,101660.69
2022-10-12T05:38:57.049Z,101671.84
2022-10-12T05:42:58.774Z,101664.88
2022-10-12T05:47:00.540Z,101671.72
2022-10-12T05:51:02.330Z,101677.69
2022-10-12T05:55:04.847Z,101680.19
2022-10-12T05:59:06.507Z,101690.53
2022-10-12T06:03:08.297Z,101686.13
2022-10-12T06:07:10.144Z,101685.97
2022-10-12T06:11:12.026Z,101692.78
2022-10-12T06:15:13.825Z,101690.88
2022-10-12T06:19:15.866Z,101690.78
2022-10-12T06:23:18.066Z,101691.38
2022-10-12T06:27:21.203Z,101695.56
2022-10-12T06:31:23.306Z,101698.72
2022-10-12T06:35:25.128Z,101701.19
2022-10-12T06:39:26.903Z,101704.50
2022-10-12T06:43:28.807Z,101698.19
2022-10-12T06:47:30.466Z,101693.50
2022-10-12T06:51:32.302Z,101702.75
2022-10-12T06:55:34.156Z,101692.88
2022-10-12T06:59:35.952Z,101697.78
2022-10-12T07:03:37.681Z,101701.66
2022-10-12T07:07:39.744Z,101689.91
2022-10-12T07:11:41.427Z,101691.22
2022-10-12T07:15:49.798Z,101681.22
2022-10-12T07:19:51.460Z,101682.47
2022-10-12T07:23:53.392Z,101676.78
2022-10-12T07:27:55.027Z,101669.31
2022-10-12T07:31:58.173Z,101669.63
2022-10-12T07:36:21.231Z,101663.72
2022-10-12T07:40:22.942Z,101657.81
2022-10-12T07:44:24.781Z,101648.41
2022-10-12T07:48:26.588Z,101645.16
2022-10-12T07:52:28.416Z,101631.19
2022-10-12T07:56:30.297Z,101635.78
2022-10-12T08:00:32.623Z,101633.13
2022-10-12T08:04:34.476Z,101637.66
2022-10-12T08:08:36.367Z,101632.88
2022-10-12T08:12:38.173Z,101654.31
2022-10-12T08:16:39.924Z,101667.81
2022-10-12T08:20:41.884Z,101657.66
2022-10-12T08:24:43.825Z,101691.88
2022-10-12T08:28:45.891Z,101711.22
2022-10-12T08:32:47.794Z,101673.97
2022-10-12T08:36:49.654Z,101685.78
2022-10-12T08:40:58.290Z,101709.28
2022-10-12T08:45:20.421Z,101730.75
2022-10-12T08:49:25.697Z,101738.69
2022-10-12T08:53:36.236Z,101750.22
2022-10-12T08:57:37.958Z,101772.59
2022-10-12T09:01:57.214Z,101767.63
2022-10-12T09:06:11.941Z,101772.88
2022-10-12T09:10:19.736Z,101771.97
2022-10-12T09:14:26.438Z,101769.25
2022-10-12T09:18:41.026Z,101762.44
2022-10-12T09:22:47.981Z,101771.56
2022-10-12T09:26:53.589Z,101771.13
2022-10-12T09:31:06.434Z,101770.75
2022-10-12T09:35:13.265Z,101757.88
2022-10-12T09:39:25.676Z,101762.03
2022-10-12T09:43:31.340Z,101767.53
2022-10-12T09:47:33.887Z,101773.13
2022-10-12T09:51:35.886Z,101775.00
2022-10-12T09:55:37.836Z,101771.78
2022-10-12T09:59:44.406Z,101769.19
2022-10-12T10:03:48.904Z,101768.63
2022-10-12T10:07:50.865Z,101766.91
2022-10-12T10:11:52.703Z,101764.94
2022-10-12T10:16:06.641Z,101765.28
2022-10-12T10:20:26.291Z,101762.28
2022-10-12T10:24:31.045Z,101762.56
2022-10-12T10:28:57.499Z,101761.06
2022-10-12T10:33:15.661Z,101752.22
2022-10-12T10:37:22.801Z,101749.25
2022-10-12T10:41:28.540Z,101749.00
2022-10-12T10:45:42.292Z,101747.50
2022-10-12T10:49:49.849Z,101745.94
2022-10-12T10:53:51.673Z,101740.16
2022-10-12T10:58:04.077Z,101735.97
2022-10-12T11:02:24.999Z,101740.66
2022-10-12T11:06:42.348Z,101738.09
2022-10-12T11:10:50.272Z,101737.59
2022-10-12T11:14:56.922Z,101739.81
2022-10-12T11:19:02.296Z,101740.22
2022-10-12T11:23:16.131Z,101740.00
2022-10-12T11:27:25.829Z,101728.81
2022-10-12T11:31:39.852Z,101720.88
2022-10-12T11:35:44.982Z,101724.13
2022-10-12T11:39:51.785Z,101726.34
2022-10-12T11:44:04.016Z,101712.19
2022-10-12T11:48:12.243Z,101711.28
2022-10-12T11:52:15.460Z,101705.28
2022-10-12T11:56:37.331Z,101708.59
2022-10-12T12:01:16.625Z,101706.31
2022-10-12T12:05:18.641Z,101711.84
2022-10-12T12:09:39.774Z,101708.84
2022-10-12T12:13:41.884Z,101706.66
2022-10-12T12:18:04.413Z,101709.34
2022-10-12T12:22:32.107Z,101704.03
2022-10-12T12:26:33.952Z,101703.31
2022-10-12T12:30:39.407Z,101704.75
2022-10-12T12:34:51.371Z,101698.84
2022-10-12T12:38:53.667Z,101699.22
2022-10-12T12:43:34.476Z,101700.50
2022-10-12T12:47:46.454Z,101700.06
2022-10-12T12:51:52.457Z,101698.63
2022-10-12T12:56:00.401Z,101697.66
2022-10-12T13:00:12.530Z,101693.56
2022-10-12T13:04:35.664Z,101694.00
2022-10-12T13:08:59.023Z,101696.84
2022-10-12T13:13:24.243Z,101696.75
2022-10-12T13:17:39.727Z,101691.97
2022-10-12T13:21:45.743Z,101696.91
2022-10-12T13:25:57.107Z,101695.53
2022-10-12T13:30:11.772Z,101689.50
2022-10-12T13:34:24.794Z,101693.38
2022-10-12T13:38:29.203Z,101692.91
2022-10-12T13:42:35.831Z,101693.94
2022-10-12T13:46:54.882Z,101689.69
2022-10-12T13:51:02.372Z,101690.97
2022-10-12T13:55:15.663Z,101691.22
2022-10-12T13:59:22.174Z,101686.72
2022-10-12T14:03:26.630Z,101692.56
2022-10-12T14:07:34.804Z,101694.53
2022-10-12T14:11:37.867Z,101684.38
2022-10-12T14:15:40.956Z,101684.13
2022-10-12T14:19:54.281Z,101683.66
2022-10-12T14:23:58.947Z,101679.34
2022-10-12T14:28:03.770Z,101686.53
2022-10-12T14:32:27.041Z,101692.25
2022-10-12T14:36:29.270Z,101686.41
2022-10-12T14:40:41.994Z,101686.66
2022-10-12T14:44:44.102Z,101694.81
2022-10-12T14:48:45.935Z,101693.63
2022-10-12T14:52:55.056Z,101691.13
2022-10-12T14:57:09.385Z,101684.31
2022-10-12T15:01:11.466Z,101683.09
2022-10-12T15:05:15.125Z,101686.19
2022-10-12T15:09:17.050Z,101687.66
2022-10-12T15:13:18.802Z,101689.84
2022-10-12T15:17:21.277Z,101685.56
2022-10-12T15:21:23.034Z,101691.56
2022-10-12T15:25:29.442Z,101684.03
2022-10-12T15:29:31.164Z,101668.38
2022-10-12T15:33:33.129Z,101668.97
2022-10-12T15:37:34.883Z,101658.13
2022-10-12T15:41:36.881Z,101642.75
2022-10-12T15:45:40.040Z,101623.81
2022-10-12T15:49:42.249Z,101611.28
2022-10-12T15:53:44.994Z,101605.75
2022-10-12T15:57:47.870Z,101597.19
2022-10-12T16:01:49.801Z,101587.56
2022-10-12T16:05:51.679Z,101589.00
2022-10-12T16:09:53.352Z,101577.78
2022-10-12T16:13:56.854Z,101569.19
2022-10-12T16:18:00.123Z,101579.34
2022-10-12T16:22:03.206Z,101554.72
2022-10-12T16:26:07.958Z,101560.25
2022-10-12T16:30:11.275Z,101564.31
2022-10-12T16:34:12.917Z,101553.13
2022-10-12T16:38:15.224Z,101553.69
2022-10-12T16:42:16.997Z,101556.09
2022-10-12T16:46:19.093Z,101547.56
2022-10-12T16:50:23.086Z,101542.56
2022-10-12T16:54:25.723Z,101545.31
2022-10-12T16:58:27.419Z,101535.88
2022-10-12T17:02:29.298Z,101545.75
2022-10-12T17:06:31.211Z,101539.06
2022-10-12T17:10:33.051Z,101543.06
2022-10-12T17:14:34.962Z,101538.28
2022-10-12T17:18:36.842Z,101536.66
2022-10-12T17:22:38.870Z,101535.78
2022-10-12T17:26:41.316Z,101541.94
2022-10-12T17:30:43.012Z,101543.81
2022-10-12T17:34:45.059Z,101546.84
2022-10-12T17:38:49.720Z,101557.66
2022-10-12T17:42:51.586Z,101555.16
2022-10-12T17:46:53.246Z,101546.69
2022-10-12T17:51:10.010Z,101551.25
2022-10-12T17:55:29.504Z,101548.69
2022-10-12T17:59:33.520Z,101543.53
2022-10-12T18:03:36.015Z,101546.94
2022-10-12T18:07:38.508Z,101542.66
2022-10-12T18:11:40.635Z,101546.28
2022-10-12T18:15:43.598Z,101543.31
2022-10-12T18:19:47.133Z,101549.59
2022-10-12T18:23:49.695Z,101555.00
2022-10-12T18:27:52.313Z,101561.25
2022-10-12T18:31:54.854Z,101558.00
2022-10-12T18:36:05.502Z,101550.66
2022-10-12T18:40:08.065Z,101555.22
2022-10-12T18:44:11.064Z,101567.72
2022-10-12T18:48:13.509Z,101564.25
2022-10-12T18:52:15.816Z,101562.69
2022-10-12T18:56:19.361Z,101570.56
2022-10-12T19:00:21.061Z,101573.34
2022-10-12T19:04:22.942Z,101578.75
2022-10-12T19:08:24.620Z,101578.56
2022-10-12T19:12:26.460Z,101572.53
2022-10-12T19:16:29.357Z,101574.31
2022-10-12T19:20:36.670Z,101575.91
2022-10-12T19:24:38.418Z,101578.75
2022-10-12T19:28:40.683Z,101577.75
2022-10-12T19:32:42.948Z,101575.25
2022-10-12T19:36:45.228Z,101582.97
2022-10-12T19:40:47.016Z,101584.78
2022-10-12T19:44:48.877Z,101588.94
2022-10-12T19:48:52.308Z,101579.75
2022-10-12T19:52:54.286Z,101586.06
2022-10-12T19:56:56.025Z,101592.56
2022-10-12T20:01:05.888Z,101593.47
2022-10-12T20:05:07.814Z,101595.94
2022-10-12T20:09:09.873Z,101580.44
2022-10-12T20:13:12.245Z,101585.38
2022-10-12T20:17:14.198Z,101581.31
2022-10-12T20:21:19.216Z,101581.78
2022-10-12T20:25:21.230Z,101582.59
2022-10-12T20:29:23.074Z,101576.63
2022-10-12T20:33:24.939Z,101586.34
2022-10-12T20:37:26.910Z,101582.03
2022-10-12T20:41:28.941Z,101578.66
2022-10-12T20:45:30.624Z,101587.28
2022-10-12T20:49:32.610Z,101592.63
2022-10-12T20:53:34.999Z,101590.09
2022-10-12T20:57:36.910Z,101590.25
2022-10-12T21:01:38.757Z,101585.78
2022-10-12T21:05:40.679Z,101597.72
2022-10-12T21:09:42.590Z,101604.84
2022-10-12T21:13:46.088Z,101601.75
2022-10-12T21:17:47.879Z,101598.44
2022-10-12T21:21:49.687Z,101602.91
2022-10-12T21:25:52.116Z,101606.50
2022-10-12T21:29:53.954Z,101598.09
2022-10-12T21:33:55.820Z,101605.34
2022-10-12T21:37:57.662Z,101608.78
2022-10-12T21:41:59.624Z,101609.78
2022-10-12T21:46:05.055Z,101610.88
2022-10-12T21:50:09.323Z,101605.16
2022-10-12T21:54:11.284Z,101604.47
2022-10-12T21:58:13.205Z,101600.25
2022-10-12T22:02:15.269Z,101604.69
2022-10-12T22:06:19.967Z,101596.22
2022-10-12T22:10:23.810Z,101604.91
2022-10-12T22:14:25.514Z,101613.88
2022-10-12T22:18:27.563Z,101616.50
2022-10-12T22:22:29.234Z,101613.94
2022-10-12T22:26:31.914Z,101615.94
2022-10-12T22:30:39.349Z,101617.69
2022-10-12T22:34:41.168Z,101604.88
2022-10-12T22:38:43.288Z,101609.44
2022-10-12T22:42:46.000Z,101603.44
2022-10-12T22:46:47.724Z,101615.59
2022-10-12T22:50:50.695Z,101604.50
2022-10-12T22:54:52.417Z,101611.47
2022-10-12T22:58:56.543Z,101621.03
2022-10-12T23:02:58.399Z,101611.69
2022-10-12T23:07:00.207Z,101617.88
2022-10-12T23:11:04.929Z,101610.19
2022-10-12T23:15:08.025Z,101617.97
2022-10-12T23:19:10.375Z,101618.81
2022-10-12T23:23:12.194Z,101617.19
2022-10-12T23:27:14.511Z,101621.56
2022-10-12T23:31:22.043Z,101618.16
2022-10-12T23:35:25.470Z,101619.97
2022-10-12T23:39:28.929Z,101622.50
2022-10-12T23:43:31.028Z,101620.84
2022-10-12T23:47:36.308Z,101624.44
2022-10-12T23:51:38.083Z,101618.31
2022-10-12T23:55:40.580Z,101626.25
2022-10-12T23:59:42.257Z,101615.75
